createdAt,value
2022-08-12T00:01:12.338Z,98331.00
2022-08-12T00:03:57.899Z,98329.00
2022-08-12T00:06:46.176Z,98331.00
2022-08-12T00:09:33.692Z,98333.00
2022-08-12T00:12:19.759Z,98328.00
2022-08-12T00:15:04.950Z,98325.00
2022-08-12T00:17:50.374Z,98325.00
2022-08-12T00:20:35.955Z,98318.00
2022-08-12T00:23:26.190Z,98324.00
2022-08-12T00:26:22.930Z,98321.00
2022-08-12T00:29:11.155Z,98321.00
2022-08-12T00:31:56.725Z,98321.00
2022-08-12T00:34:42.186Z,98317.00
2022-08-12T00:37:28.340Z,98321.00
2022-08-12T00:40:15.140Z,98322.00
2022-08-12T00:42:43.407Z,98326.00
2022-08-12T00:45:11.992Z,98329.00
2022-08-12T00:47:41.267Z,98315.00
2022-08-12T00:50:18.032Z,98317.00
2022-08-12T00:52:47.052Z,98320.00
2022-08-12T00:55:15.827Z,98324.00
2022-08-12T00:57:48.823Z,98312.00
2022-08-12T01:00:21.506Z,98314.00
2022-08-12T01:02:53.184Z,98315.00
2022-08-12T01:05:40.815Z,98318.00
2022-08-12T01:08:27.029Z,98310.00
2022-08-12T01:11:15.147Z,98314.00
2022-08-12T01:13:49.175Z,98316.00
2022-08-12T01:16:22.695Z,98309.00
2022-08-12T01:18:53.853Z,98310.00
2022-08-12T01:21:55.745Z,98309.00
2022-08-12T01:24:58.881Z,98310.00
2022-08-12T01:27:28.608Z,98314.00
2022-08-12T01:29:59.198Z,98309.00
2022-08-12T01:32:30.191Z,98315.00
2022-08-12T01:35:07.033Z,98310.00
2022-08-12T01:37:43.408Z,98307.00
2022-08-12T01:40:35.755Z,98313.00
2022-08-12T01:43:10.120Z,98311.00
2022-08-12T01:45:46.949Z,98313.00
2022-08-12T01:48:27.117Z,98315.00
2022-08-12T01:51:06.780Z,98310.00
2022-08-12T01:54:05.848Z,98307.00
2022-08-12T01:56:48.680Z,98304.00
2022-08-12T01:59:50.366Z,98301.00
2022-08-12T02:02:23.275Z,98298.00
2022-08-12T02:05:26.452Z,98291.00
2022-08-12T02:08:28.750Z,98293.00
2022-08-12T02:11:16.796Z,98293.00
2022-08-12T02:14:18.352Z,98285.00
2022-08-12T02:17:09.100Z,98281.00
2022-08-12T02:19:50.700Z,98284.00
2022-08-12T02:22:29.143Z,98287.00
2022-08-12T02:25:06.314Z,98284.00
2022-08-12T02:27:39.538Z,98282.00
2022-08-12T02:30:12.146Z,98284.00
2022-08-12T02:32:43.608Z,98286.00
2022-08-12T02:35:15.231Z,98282.00
2022-08-12T02:37:45.464Z,98279.00
2022-08-12T02:40:15.612Z,98286.00
2022-08-12T02:42:53.894Z,98274.00
2022-08-12T02:45:36.192Z,98275.00
2022-08-12T02:48:09.416Z,98282.00
2022-08-12T02:50:46.143Z,98274.00
2022-08-12T02:53:15.560Z,98275.00
2022-08-12T02:55:45.694Z,98271.00
2022-08-12T02:58:14.954Z,98264.00
2022-08-12T03:00:45.815Z,98263.00
2022-08-12T03:03:15.262Z,98272.00
2022-08-12T03:05:52.518Z,98268.00
2022-08-12T03:08:31.850Z,98262.00
2022-08-12T03:11:07.899Z,98262.00
2022-08-12T03:13:46.839Z,98266.00
2022-08-12T03:16:16.213Z,98272.00
2022-08-12T03:18:45.959Z,98269.00
2022-08-12T03:21:53.159Z,98268.00
2022-08-12T03:24:08.929Z,98268.00
2022-08-12T03:26:38.214Z,98264.00
2022-08-12T03:29:07.749Z,98269.00
2022-08-12T03:31:37.231Z,98270.00
2022-08-12T03:34:08.462Z,98261.00
2022-08-12T03:36:39.413Z,98261.00
2022-08-12T03:39:36.753Z,98265.00
2022-08-12T03:42:25.843Z,98267.00
2022-08-12T03:45:42.912Z,98264.00
2022-08-12T03:48:40.084Z,98255.00
2022-08-12T03:51:27.326Z,98262.00
2022-08-12T03:54:13.323Z,98266.00
2022-08-12T03:56:59.096Z,98261.00
2022-08-12T03:59:44.724Z,98267.00
2022-08-12T04:02:15.832Z,98269.00
2022-08-12T04:04:46.444Z,98267.00
2022-08-12T04:07:16.885Z,98274.00
2022-08-12T04:09:47.697Z,98280.00
2022-08-12T04:12:33.444Z,98281.00
2022-08-12T04:15:03.374Z,98293.00
2022-08-12T04:17:32.718Z,98284.00
2022-08-12T04:20:02.206Z,98285.00
2022-08-12T04:22:31.057Z,98291.00
2022-08-12T04:25:03.152Z,98284.00
2022-08-12T04:27:32.675Z,98282.00
2022-08-12T04:30:21.459Z,98282.00
2022-08-12T04:32:50.942Z,98287.00
2022-08-12T04:35:21.260Z,98288.00
2022-08-12T04:37:59.718Z,98287.00
2022-08-12T04:40:30.752Z,98288.00
2022-08-12T04:43:00.966Z,98287.00
2022-08-12T04:45:29.179Z,98280.00
2022-08-12T04:47:57.991Z,98289.00
2022-08-12T04:50:35.779Z,98289.00
2022-08-12T04:53:05.888Z,98292.00
2022-08-12T04:55:35.655Z,98292.00
2022-08-12T04:58:03.519Z,98294.00
2022-08-12T05:00:31.668Z,98294.00
2022-08-12T05:02:59.606Z,98292.00
2022-08-12T05:05:35.229Z,98294.00
2022-08-12T05:08:07.837Z,98295.00
2022-08-12T05:10:36.220Z,98293.00
2022-08-12T05:13:11.048Z,98293.00
2022-08-12T05:16:02.489Z,98297.00
2022-08-12T05:18:29.683Z,98299.00
2022-08-12T05:20:59.821Z,98302.00
2022-08-12T05:23:28.871Z,98301.00
2022-08-12T05:25:57.439Z,98311.00
2022-08-12T05:28:27.275Z,98306.00
2022-08-12T05:30:56.880Z,98310.00
2022-08-12T05:33:26.510Z,98301.00
2022-08-12T05:35:54.583Z,98306.00
2022-08-12T05:38:41.274Z,98309.00
2022-08-12T05:41:19.099Z,98308.00
2022-08-12T05:43:49.440Z,98310.00
2022-08-12T05:46:19.968Z,98311.00
2022-08-12T05:48:49.385Z,98316.00
2022-08-12T05:51:17.654Z,98323.00
2022-08-12T05:53:46.787Z,98323.00
2022-08-12T05:56:24.132Z,98320.00
2022-08-12T05:58:54.534Z,98317.00
2022-08-12T06:02:09.138Z,98325.00
2022-08-12T06:04:12.414Z,98323.00
2022-08-12T06:06:42.279Z,98325.00
2022-08-12T06:09:12.235Z,98328.00
2022-08-12T06:11:59.901Z,98322.00
2022-08-12T06:14:31.674Z,98325.00
2022-08-12T06:16:59.940Z,98321.00
2022-08-12T06:20:26.684Z,98323.00
2022-08-12T06:22:17.256Z,98325.00
2022-08-12T06:24:48.418Z,98314.00
2022-08-12T06:27:18.951Z,98319.00
2022-08-12T06:30:08.874Z,98308.00
2022-08-12T06:32:35.390Z,98309.00
2022-08-12T06:35:25.825Z,98306.00
2022-08-12T06:37:56.818Z,98305.00
2022-08-12T06:40:44.687Z,98306.00
2022-08-12T06:43:14.235Z,98310.00
2022-08-12T06:45:46.720Z,98307.00
2022-08-12T06:48:16.457Z,98311.00
2022-08-12T06:50:44.495Z,98311.00
2022-08-12T06:53:12.367Z,98306.00
2022-08-12T06:55:56.772Z,98305.00
2022-08-12T06:58:27.207Z,98301.00
2022-08-12T07:00:57.757Z,98298.00
2022-08-12T07:03:28.653Z,98295.00
2022-08-12T07:05:59.449Z,98298.00
2022-08-12T07:08:28.953Z,98297.00
2022-08-12T07:11:00.650Z,98296.00
2022-08-12T07:14:11.493Z,98295.00
2022-08-12T07:16:26.963Z,98302.00
2022-08-12T07:18:56.773Z,98302.00
2022-08-12T07:22:02.081Z,98308.00
2022-08-12T07:24:16.016Z,98302.00
2022-08-12T07:26:45.163Z,98302.00
2022-08-12T07:29:14.820Z,98297.00
2022-08-12T07:31:42.962Z,98302.00
2022-08-12T07:34:10.874Z,98298.00
2022-08-12T07:36:39.254Z,98301.00
2022-08-12T07:39:07.585Z,98291.00
2022-08-12T07:41:38.967Z,98294.00
2022-08-12T07:44:10.425Z,98287.00
2022-08-12T07:46:41.725Z,98299.00
2022-08-12T07:49:12.989Z,98297.00
2022-08-12T07:51:43.053Z,98301.00
2022-08-12T07:54:13.766Z,98297.00
2022-08-12T07:56:43.799Z,98287.00
2022-08-12T07:59:13.440Z,98282.00
2022-08-12T08:01:42.374Z,98286.00
2022-08-12T08:04:26.702Z,98280.00
2022-08-12T08:06:54.829Z,98275.00
2022-08-12T08:09:25.001Z,98274.00
2022-08-12T08:12:19.067Z,98274.00
2022-08-12T08:14:50.173Z,98272.00
2022-08-12T08:17:18.515Z,98274.00
2022-08-12T08:20:02.721Z,98279.00
2022-08-12T08:22:42.071Z,98271.00
2022-08-12T08:25:34.775Z,98274.00
2022-08-12T08:28:02.310Z,98270.00
2022-08-12T08:30:34.475Z,98278.00
2022-08-12T08:33:02.367Z,98265.00
2022-08-12T08:35:46.791Z,98285.00
2022-08-12T08:38:25.509Z,98265.00
2022-08-12T08:42:17.156Z,98269.00
2022-08-12T08:44:07.859Z,98269.00
2022-08-12T08:46:38.068Z,98269.00
2022-08-12T08:49:06.842Z,98265.00
2022-08-12T08:51:35.247Z,98270.00
2022-08-12T08:54:03.128Z,98268.00
2022-08-12T08:56:31.124Z,98263.00
2022-08-12T08:58:59.023Z,98280.00
2022-08-12T09:01:37.991Z,98268.00
2022-08-12T09:05:07.064Z,98278.00
2022-08-12T09:07:00.119Z,98265.00
2022-08-12T09:10:01.485Z,98278.00
2022-08-12T09:12:36.174Z,98278.00
2022-08-12T09:15:16.913Z,98272.00
2022-08-12T09:17:57.056Z,98288.00
2022-08-12T09:20:30.776Z,98269.00
2022-08-12T09:22:59.497Z,98273.00
2022-08-12T09:25:33.394Z,98280.00
2022-08-12T09:28:05.118Z,98268.00
2022-08-12T09:30:42.307Z,98263.00
2022-08-12T09:33:18.806Z,98282.00
2022-08-12T09:36:05.587Z,98267.00
2022-08-12T09:38:35.603Z,98266.00
2022-08-12T09:42:33.858Z,98268.00
2022-08-12T09:44:38.420Z,98267.00
2022-08-12T09:46:59.501Z,98257.00
2022-08-12T09:49:28.282Z,98259.00
2022-08-12T09:51:57.971Z,98259.00
2022-08-12T09:54:33.274Z,98251.00
2022-08-12T09:58:07.582Z,98246.00
2022-08-12T10:00:15.330Z,98256.00
2022-08-12T10:03:01.384Z,98248.00
2022-08-12T10:06:27.923Z,98246.00
2022-08-12T10:08:30.391Z,98257.00
2022-08-12T10:11:18.647Z,98243.00
2022-08-12T10:13:51.149Z,98240.00
2022-08-12T10:16:22.467Z,98244.00
2022-08-12T10:18:53.879Z,98247.00
2022-08-12T10:21:35.681Z,98235.00
2022-08-12T10:24:09.489Z,98243.00
2022-08-12T10:26:57.194Z,98237.00
2022-08-12T10:30:38.908Z,98238.00
2022-08-12T10:33:02.438Z,98241.00
2022-08-12T10:35:16.233Z,98232.00
2022-08-12T10:38:36.386Z,98232.00
2022-08-12T10:40:55.042Z,98221.00
2022-08-12T10:43:55.948Z,98226.00
2022-08-12T10:46:30.939Z,98220.00
2022-08-12T10:49:06.732Z,98210.00
2022-08-12T10:52:32.373Z,98217.00
2022-08-12T10:54:41.393Z,98229.00
2022-08-12T10:57:18.518Z,98215.00
2022-08-12T11:00:33.701Z,98219.00
2022-08-12T11:04:35.952Z,98210.00
2022-08-12T11:07:09.553Z,98214.00
2022-08-12T11:08:38.603Z,98206.00
2022-08-12T11:11:13.656Z,98203.00
2022-08-12T11:13:48.614Z,98210.00
2022-08-12T11:16:22.091Z,98207.00
2022-08-12T11:18:55.288Z,98207.00
2022-08-12T11:21:56.127Z,98202.00
2022-08-12T11:24:30.043Z,98196.00
2022-08-12T11:27:02.148Z,98196.00
2022-08-12T11:30:05.508Z,98185.00
2022-08-12T11:32:26.065Z,98178.00
2022-08-12T11:34:55.207Z,98182.00
2022-08-12T11:37:25.377Z,98174.00
2022-08-12T11:42:35.780Z,98180.00
2022-08-12T11:45:10.511Z,98180.00
2022-08-12T11:47:40.404Z,98178.00
2022-08-12T11:50:11.879Z,98177.00
2022-08-12T11:52:56.097Z,98176.00
2022-08-12T11:55:27.505Z,98175.00
2022-08-12T11:58:42.266Z,98176.00
2022-08-12T12:03:44.032Z,98161.00
2022-08-12T12:06:18.232Z,98168.00
2022-08-12T12:08:51.537Z,98164.00
2022-08-12T12:11:24.711Z,98167.00
2022-08-12T12:14:07.546Z,98163.00
2022-08-12T12:16:42.097Z,98165.00
2022-08-12T12:19:19.147Z,98151.00
2022-08-12T12:21:49.359Z,98157.00
2022-08-12T12:24:21.926Z,98154.00
2022-08-12T12:26:59.790Z,98149.00
2022-08-12T12:30:19.595Z,98146.00
2022-08-12T12:32:29.197Z,98146.00
2022-08-12T12:36:05.304Z,98149.00
2022-08-12T12:38:04.287Z,98142.00
2022-08-12T12:40:39.735Z,98139.00
2022-08-12T12:43:09.227Z,98134.00
2022-08-12T12:45:39.533Z,98135.00
2022-08-12T12:48:17.222Z,98128.00
2022-08-12T12:50:51.636Z,98130.00
2022-08-12T12:54:06.867Z,98123.00
2022-08-12T12:56:16.685Z,98128.00
2022-08-12T12:58:44.844Z,98120.00
2022-08-12T13:01:26.704Z,98125.00
2022-08-12T13:04:02.155Z,98112.00
2022-08-12T13:06:32.391Z,98111.00
2022-08-12T13:09:03.816Z,98106.00
2022-08-12T13:11:41.472Z,98122.00
2022-08-12T13:14:29.118Z,98117.00
2022-08-12T13:17:02.320Z,98112.00
2022-08-12T13:19:43.431Z,98107.00
2022-08-12T13:22:20.067Z,98107.00
2022-08-12T13:24:54.842Z,98109.00
2022-08-12T13:27:35.077Z,98099.00
2022-08-12T13:30:11.676Z,98103.00
2022-08-12T13:32:42.102Z,98094.00
2022-08-12T13:35:19.673Z,98091.00
2022-08-12T13:37:55.177Z,98089.00
2022-08-12T13:40:24.993Z,98094.00
2022-08-12T13:42:58.019Z,98095.00
2022-08-12T13:45:27.098Z,98094.00
2022-08-12T13:48:00.160Z,98092.00
2022-08-12T13:50:33.964Z,98082.00
2022-08-12T13:53:06.307Z,98078.00
2022-08-12T13:55:59.617Z,98076.00
2022-08-12T13:58:32.979Z,98078.00
2022-08-12T14:01:05.717Z,98080.00
2022-08-12T14:03:51.214Z,98085.00
2022-08-12T14:06:26.009Z,98083.00
2022-08-12T14:09:00.140Z,98080.00
2022-08-12T14:11:51.134Z,98084.00
2022-08-12T14:14:27.167Z,98071.00
2022-08-12T14:16:55.195Z,98072.00
2022-08-12T14:19:27.125Z,98076.00
2022-08-12T14:22:10.559Z,98067.00
2022-08-12T14:24:40.450Z,98070.00
2022-08-12T14:27:11.302Z,98067.00
2022-08-12T14:30:05.494Z,98064.00
2022-08-12T14:32:35.012Z,98062.00
2022-08-12T14:35:09.277Z,98065.00
2022-08-12T14:37:56.106Z,98065.00
2022-08-12T14:40:27.844Z,98061.00
2022-08-12T14:42:57.517Z,98063.00
2022-08-12T14:45:44.857Z,98054.00
2022-08-12T14:48:18.505Z,98068.00
2022-08-12T14:52:10.295Z,98074.00
2022-08-12T14:54:52.900Z,98071.00
2022-08-12T14:59:57.788Z,98076.00
2022-08-12T15:02:21.013Z,98074.00
2022-08-12T15:04:59.129Z,98076.00
2022-08-12T15:07:43.822Z,98081.00
2022-08-12T15:10:31.221Z,98089.00
2022-08-12T15:13:07.693Z,98078.00
2022-08-12T15:15:44.082Z,98093.00
2022-08-12T15:18:21.459Z,98082.00
2022-08-12T15:20:51.285Z,98077.00
2022-08-12T15:23:22.038Z,98072.00
2022-08-12T15:25:59.896Z,98065.00
2022-08-12T15:28:37.138Z,98071.00
2022-08-12T15:31:21.364Z,98072.00
2022-08-12T15:33:55.241Z,98069.00
2022-08-12T15:36:55.110Z,98072.00
2022-08-12T15:39:17.129Z,98074.00
2022-08-12T15:41:49.066Z,98067.00
2022-08-12T15:44:41.557Z,98069.00
2022-08-12T15:47:07.800Z,98071.00
2022-08-12T15:49:43.460Z,98069.00
2022-08-12T15:52:28.088Z,98066.00
2022-08-12T15:54:58.779Z,98074.00
2022-08-12T15:57:28.647Z,98076.00
2022-08-12T16:00:07.349Z,98070.00
2022-08-12T16:02:47.283Z,98072.00
2022-08-12T16:06:12.797Z,98062.00
2022-08-12T16:08:11.620Z,98074.00
2022-08-12T16:10:44.787Z,98077.00
2022-08-12T16:13:18.214Z,98080.00
2022-08-12T16:16:03.290Z,98074.00
2022-08-12T16:18:37.258Z,98072.00
2022-08-12T16:21:06.425Z,98060.00
2022-08-12T16:23:55.315Z,98071.00
2022-08-12T16:26:32.174Z,98063.00
2022-08-12T16:29:14.566Z,98064.00
2022-08-12T16:31:43.634Z,98069.00
2022-08-12T16:34:39.795Z,98073.00
2022-08-12T16:37:08.639Z,98070.00
2022-08-12T16:39:59.991Z,98070.00
2022-08-12T16:42:28.551Z,98066.00
2022-08-12T16:45:00.384Z,98072.00
2022-08-12T16:47:57.298Z,98069.00
2022-08-12T16:50:21.756Z,98062.00
2022-08-12T16:53:02.189Z,98061.00
2022-08-12T16:55:42.179Z,98070.00
2022-08-12T16:58:25.589Z,98065.00
2022-08-12T17:01:02.129Z,98072.00
2022-08-12T17:03:32.477Z,98068.00
2022-08-12T17:06:06.425Z,98061.00
2022-08-12T17:08:34.750Z,98060.00
2022-08-12T17:11:02.564Z,98057.00
2022-08-12T17:13:36.214Z,98058.00
2022-08-12T17:16:24.118Z,98066.00
2022-08-12T17:18:57.680Z,98061.00
2022-08-12T17:21:40.253Z,98059.00
2022-08-12T17:24:14.997Z,98055.00
2022-08-12T17:26:49.393Z,98052.00
2022-08-12T17:29:24.355Z,98051.00
2022-08-12T17:32:11.277Z,98048.00
2022-08-12T17:34:56.974Z,98050.00
2022-08-12T17:37:24.888Z,98055.00
2022-08-12T17:40:15.818Z,98054.00
2022-08-12T17:42:43.754Z,98058.00
2022-08-12T17:45:19.459Z,98067.00
2022-08-12T17:48:01.729Z,98077.00
2022-08-12T17:50:36.771Z,98080.00
2022-08-12T17:53:07.828Z,98079.00
2022-08-12T17:55:44.004Z,98090.00
2022-08-12T17:58:15.924Z,98110.00
2022-08-12T18:00:45.930Z,98093.00
2022-08-12T18:03:57.679Z,98092.00
2022-08-12T18:06:13.659Z,98096.00
2022-08-12T18:08:43.506Z,98102.00
2022-08-12T18:12:05.746Z,98087.00
2022-08-12T18:14:29.331Z,98098.00
2022-08-12T18:17:01.113Z,98094.00
2022-08-12T18:19:34.055Z,98096.00
2022-08-12T18:22:22.245Z,98103.00
2022-08-12T18:25:03.807Z,98116.00
2022-08-12T18:27:45.603Z,98114.00
2022-08-12T18:30:29.077Z,98119.00
2022-08-12T18:33:03.853Z,98119.00
2022-08-12T18:35:47.075Z,98124.00
2022-08-12T18:38:24.734Z,98123.00
2022-08-12T18:41:20.946Z,98122.00
2022-08-12T18:44:02.721Z,98124.00
2022-08-12T18:46:47.480Z,98131.00
2022-08-12T18:49:21.677Z,98125.00
2022-08-12T18:52:02.511Z,98139.00
2022-08-12T18:54:35.620Z,98142.00
2022-08-12T18:57:16.198Z,98135.00
2022-08-12T19:00:01.924Z,98132.00
2022-08-12T19:02:33.006Z,98135.00
2022-08-12T19:05:09.298Z,98135.00
2022-08-12T19:07:59.903Z,98139.00
2022-08-12T19:10:32.531Z,98140.00
2022-08-12T19:13:24.124Z,98141.00
2022-08-12T19:15:57.482Z,98143.00
2022-08-12T19:18:29.096Z,98144.00
2022-08-12T19:20:58.590Z,98141.00
2022-08-12T19:23:35.417Z,98145.00
2022-08-12T19:26:05.146Z,98151.00
2022-08-12T19:28:36.445Z,98152.00
2022-08-12T19:31:56.719Z,98149.00
2022-08-12T19:37:26.672Z,98150.00
2022-08-12T19:40:10.059Z,98156.00
2022-08-12T19:43:00.717Z,98166.00
2022-08-12T19:45:43.720Z,98163.00
2022-08-12T19:48:20.411Z,98162.00
2022-08-12T19:50:53.035Z,98165.00
2022-08-12T19:53:23.369Z,98158.00
2022-08-12T19:55:54.871Z,98162.00
2022-08-12T19:58:24.470Z,98158.00
2022-08-12T20:00:54.526Z,98154.00
2022-08-12T20:03:38.665Z,98154.00
2022-08-12T20:06:14.056Z,98156.00
2022-08-12T20:08:49.065Z,98153.00
2022-08-12T20:12:13.579Z,98157.00
2022-08-12T20:14:19.013Z,98154.00
2022-08-12T20:16:52.638Z,98159.00
2022-08-12T20:19:24.565Z,98153.00
2022-08-12T20:22:15.063Z,98148.00
2022-08-12T20:24:51.576Z,98144.00
2022-08-12T20:27:29.705Z,98157.00
2022-08-12T20:30:15.361Z,98158.00
2022-08-12T20:32:55.080Z,98150.00
2022-08-12T20:36:07.066Z,98156.00
2022-08-12T20:38:26.376Z,98159.00
2022-08-12T20:40:55.461Z,98156.00
2022-08-12T20:43:28.004Z,98163.00
2022-08-12T20:45:57.680Z,98157.00
2022-08-12T20:48:29.634Z,98158.00
2022-08-12T20:50:58.053Z,98157.00
2022-08-12T20:53:53.975Z,98167.00
2022-08-12T20:56:30.859Z,98168.00
2022-08-12T20:59:04.942Z,98165.00
2022-08-12T21:01:36.654Z,98163.00
2022-08-12T21:04:31.884Z,98164.00
2022-08-12T21:07:08.318Z,98160.00
2022-08-12T21:09:41.438Z,98158.00
2022-08-12T21:12:31.456Z,98156.00
2022-08-12T21:15:17.434Z,98162.00
2022-08-12T21:18:11.320Z,98165.00
2022-08-12T21:20:49.603Z,98150.00
2022-08-12T21:23:19.062Z,98155.00
2022-08-12T21:25:48.161Z,98155.00
2022-08-12T21:28:18.932Z,98152.00
2022-08-12T21:31:11.360Z,98157.00
2022-08-12T21:34:06.639Z,98147.00
2022-08-12T21:36:35.010Z,98156.00
2022-08-12T21:39:18.193Z,98144.00
2022-08-12T21:41:51.922Z,98158.00
2022-08-12T21:44:24.135Z,98156.00
2022-08-12T21:47:21.796Z,98165.00
2022-08-12T21:50:02.982Z,98152.00
2022-08-12T21:52:36.191Z,98165.00
2022-08-12T21:55:08.453Z,98160.00
2022-08-12T21:57:50.717Z,98159.00
2022-08-12T22:00:31.512Z,98165.00
2022-08-12T22:03:54.975Z,98172.00
2022-08-12T22:06:31.419Z,98168.00
2022-08-12T22:09:17.196Z,98160.00
2022-08-12T22:11:49.378Z,98158.00
2022-08-12T22:14:25.311Z,98163.00
2022-08-12T22:16:55.959Z,98161.00
2022-08-12T22:19:26.918Z,98160.00
2022-08-12T22:21:58.377Z,98170.00
2022-08-12T22:24:29.518Z,98163.00
2022-08-12T22:26:58.907Z,98171.00
2022-08-12T22:29:44.400Z,98174.00
2022-08-12T22:32:13.249Z,98187.00
2022-08-12T22:34:46.123Z,98179.00
2022-08-12T22:37:20.040Z,98186.00
2022-08-12T22:39:49.101Z,98175.00
2022-08-12T22:42:35.701Z,98172.00
2022-08-12T22:45:23.221Z,98172.00
2022-08-12T22:47:55.213Z,98163.00
2022-08-12T22:50:28.684Z,98166.00
2022-08-12T22:53:14.972Z,98167.00
2022-08-12T22:56:00.159Z,98166.00
2022-08-12T22:58:35.238Z,98165.00
2022-08-12T23:01:03.689Z,98162.00
2022-08-12T23:03:48.004Z,98156.00
2022-08-12T23:06:21.913Z,98154.00
2022-08-12T23:08:50.689Z,98151.00
2022-08-12T23:11:23.972Z,98155.00
2022-08-12T23:13:56.101Z,98152.00
2022-08-12T23:16:31.896Z,98149.00
2022-08-12T23:19:10.467Z,98150.00
2022-08-12T23:22:05.889Z,98141.00
2022-08-12T23:24:55.711Z,98138.00
2022-08-12T23:27:51.287Z,98139.00
2022-08-12T23:30:31.699Z,98138.00
2022-08-12T23:33:02.605Z,98133.00
2022-08-12T23:35:45.575Z,98128.00
2022-08-12T23:38:30.794Z,98134.00
2022-08-12T23:41:01.283Z,98128.00
2022-08-12T23:43:39.728Z,98125.00
2022-08-12T23:46:10.579Z,98130.00
2022-08-12T23:48:40.125Z,98126.00
2022-08-12T23:51:22.274Z,98130.00
2022-08-12T23:53:56.064Z,98127.00
2022-08-12T23:56:25.507Z,98119.00
2022-08-12T23:58:57.581Z,98120.00
